Tiempo atmosférico en la estación meteorológica de Capdepera, Illes Balears (57 m.)



Fecha
DESCASC
Temp. máxima en grados centígrados (hora)
DESCASC
Temp. mínima en grados centígrados (hora)
DESCASC
Temp. media en grados centígrados
DESCASC
Racha de viento máxima en m/sg (hora)
DESCASC
Velocidad máxima media en intervalos de 10 minutos(hora)
DESCASC
Precipitaciones diarias en mm
DESCASC
Precipitaciones de 00:00 a 06:00 en mm
DESCASC
Precipitaciones de 06:00 a 12:00 en mm
DESCASC
Precipitaciones de 12:00 a 18:00 en mm
DESCASC
Precipitaciones de 18:00 a 24:00 en mm
DESCASC
20-06-2018 27.4 (13:50) 21.3 (05:20) 24.3 10 (04:00) 7.22 (04:10) 0 0 0 0 0
19-06-2018 25.9 (15:50) 21.5 (00:00) 23.7 16.39 (06:40) 12.5 (06:10) 0 0 0 0 0
18-06-2018 27.4 (12:50) 20.8 (01:40) 24.1 11.11 (18:20) 9.17 (16:10) 0 0 0 0 0
17-06-2018 26.3 (16:30) 20.2 (03:30) 23.3 8.89 (20:30) 6.67 (20:00) 0 0 0 0 0
16-06-2018 26.8 (12:20) 19.9 (05:10) 23.3 11.39 (15:10) 7.5 (13:40) 0 0 0 0 0
15-06-2018 26.9 (13:30) 19 (05:10) 22.9 11.94 (14:50) 8.33 (16:20) 0 0 0 0 0
14-06-2018 24.5 (12:40) 19.9 (00:00) 22.2 7.5 (11:00) 5.83 (11:00) 0 0 0 0 0
13-06-2018 25 (16:40) 20 (06:20) 22.5 12.22 (14:10) 9.44 (20:30) 0 0 0 0 0
12-06-2018 25 (14:30) 19.8 (04:10) 22.4 13.33 (18:30) 9.44 (13:00) 0 0 0 0 0
11-06-2018 -- (--) -- (--) -- -- (--) -- (--) -- 0 -- 0 0
10-06-2018 -- (--) -- (--) -- 19.17 (08:40) 11.11 (08:50) 0 0 0 0 0
09-06-2018 -- (--) -- (--) -- 11.94 (13:10) 7.22 (13:20) 0 0 0 0 0
08-06-2018 -- (--) -- (--) -- -- (--) -- (--) 0 0 0 0 0
07-06-2018 -- (--) -- (--) -- 11.11 (15:30) 8.33 (15:40) 0 0 0 0 0
06-06-2018 -- (--) -- (--) -- 13.89 (16:50) 10.56 (12:30) 0 0 0 0 0
05-06-2018 -- (--) -- (--) -- -- (--) -- (--) 0 0 0 0 0
04-06-2018 -- (--) -- (--) -- -- (--) -- (--) 0 0 0 0 0
03-06-2018 -- (--) -- (--) -- 16.39 (11:40) 13.61 (11:40) 0 0 0 0 0
02-06-2018 22.7 (16:20) 17.4 (00:00) 20.1 5.83 (09:30) 4.72 (09:30) 0 0 0 0 0
01-06-2018 -- (--) -- (--) -- -- (--) -- (--) -- -- -- 0 0
31-05-2018 -- (--) -- (--) -- -- (--) -- (--) -- 0 -- -- --
30-05-2018 21.3 (10:40) 17 (00:00) 19.1 15 (14:00) 10.83 (14:50) 0 0 0 0 0
29-05-2018 23.8 (16:00) 17.3 (00:00) 20.5 6.39 (00:30) 5.83 (14:30) 0 0 0 0 0
28-05-2018 21.5 (14:50) 17.4 (00:00) 19.4 14.44 (04:00) 11.11 (03:50) 0 0 0 0 0
27-05-2018 25 (16:40) 17.7 (00:00) 21.4 12.22 (15:40) 7.78 (15:50) 0 0 0 0 0
26-05-2018 20.9 (13:40) 17.5 (00:00) 19.2 9.44 (07:30) 7.78 (07:40) 0 0 0 0 0
25-05-2018 23.3 (13:10) 17.3 (00:00) 20.3 11.39 (07:20) 8.89 (07:30) 0 0 0 0 0
24-05-2018 22.4 (15:00) 16.3 (00:00) 19.3 6.67 (23:50) 5.56 (14:20) 0 0 0 0 0
23-05-2018 21.8 (12:20) 15.6 (00:00) 18.7 9.72 (14:40) 7.78 (13:00) 0 0 0 0 0
22-05-2018 22.4 (13:30) 15.4 (00:00) 18.9 6.67 (16:00) 5.83 (11:50) 0 0 0 0 0

Gráficas

Temp. máximas Temp. mínimas Temp. medias Precipitaciones Rachas de viento máximas Velocidades máximas media en intervalos de 10 minutos

Datos horarios

Fecha y hora oficial Temperatura (ºC) Velocidad del viento (km/h) Dirección del viento Racha (km/h) Dirección de racha Precipitación (mm) Presión (hPa) Tendencia (hPa) Humedad (%)
2018-06-20 23:00:00 22.6 0 Calma 7 Noroeste 0 -- -- 82
2018-06-20 22:00:00 22.7 7 Noroeste 11 Noroeste 0 -- -- 84
2018-06-20 21:00:00 23 9 Noroeste 12 Noroeste 0 -- -- 87
2018-06-20 20:00:00 23.4 11 Noroeste 15 Noroeste 0 -- -- 87
2018-06-20 19:00:00 24.1 14 Noroeste 20 Noroeste 0 -- -- 81
2018-06-20 18:00:00 25.5 18 Noroeste 21 Noroeste 0 -- -- 74
2018-06-20 17:00:00 26.1 16 Noroeste 21 Noroeste 0 -- -- 72
2018-06-20 16:00:00 27.1 17 Noroeste 21 Noroeste 0 -- -- 70
2018-06-20 15:00:00 27.1 18 Noroeste 23 Noroeste 0 -- -- 69
2018-06-20 14:00:00 26.5 19 Noroeste 23 Noroeste 0 -- -- 69
2018-06-20 13:00:00 26.2 18 Noroeste 21 Noroeste 0 -- -- 69
2018-06-20 12:00:00 26.5 18 Oeste 22 Noroeste 0 -- -- 69
2018-06-20 11:00:00 25.4 19 Oeste 24 Oeste 0 -- -- 74
2018-06-20 10:00:00 23.7 21 Oeste 26 Noroeste 0 -- -- 78
2018-06-20 09:00:00 23.4 21 Oeste 29 Oeste 0 -- -- 75
2018-06-20 08:00:00 23 18 Oeste 26 Oeste 0 -- -- 75
2018-06-20 07:00:00 22 18 Oeste 24 Noroeste 0 -- -- 82
2018-06-20 06:00:00 21.4 15 Noroeste 27 Noroeste 0 -- -- 87
2018-06-20 05:00:00 21.4 18 Noroeste 33 Noroeste 0 -- -- 89
2018-06-20 04:00:00 21.7 25 Noroeste 36 Noroeste 0 -- -- 87
2018-06-20 03:00:00 21.6 19 Noroeste 26 Noroeste 0 -- -- 82
2018-06-20 02:00:00 21.9 16 Noroeste 21 Noroeste 0 -- -- 75
2018-06-20 01:00:00 22.1 17 Noroeste 23 Noroeste 0 -- -- 72
2018-06-20 00:00:00 22 17 Noroeste 24 Norte 0 -- -- 72
2018-06-19 23:00:00 22 13 Noroeste 27 Noroeste 0 -- -- 76
2018-06-19 22:00:00 22 22 Noroeste 31 Oeste 0 -- -- 80
2018-06-19 21:00:00 22.2 24 Noroeste 29 Noroeste 0 -- -- 76
2018-06-19 20:00:00 22.6 23 Noroeste 30 Noroeste 0 -- -- 73
2018-06-19 19:00:00 23 26 Noroeste 31 Noroeste 0 -- -- 73
2018-06-19 18:00:00 24.1 28 Noroeste 35 Noroeste 0 -- -- 65
2018-06-19 17:00:00 24.2 30 Noroeste 39 Norte 0 -- -- 66
2018-06-19 16:00:00 25 31 Noroeste 42 Norte 0 -- -- 65
2018-06-19 15:00:00 25 32 Noroeste 43 Noroeste 0 -- -- 65
2018-06-19 14:00:00 24.8 38 Noroeste 46 Noroeste 0 -- -- 64
2018-06-19 13:00:00 24.8 33 Noroeste 44 Noroeste 0 -- -- 65
2018-06-19 12:00:00 24 34 Norte 54 Norte 0 -- -- 68
2018-06-19 11:00:00 23.5 42 Norte 51 Nordeste 0 -- -- 70
2018-06-19 10:00:00 23.1 42 Norte 54 Noroeste 0 -- -- 72
2018-06-19 09:00:00 22.8 42 Norte 57 Noroeste 0 -- -- 75
2018-06-19 08:00:00 22.3 44 Noroeste 56 Noroeste 0 -- -- 75
2018-06-19 07:00:00 21.9 41 Noroeste 59 Noroeste 0 -- -- 77
2018-06-19 06:00:00 21.8 35 Noroeste 55 Norte 0 -- -- 89
2018-06-19 05:00:00 21.7 37 Oeste 46 Oeste 0 -- -- 89
2018-06-19 04:00:00 21.7 30 Oeste 37 Norte 0 -- -- 88
2018-06-19 03:00:00 21.9 30 Oeste 38 Oeste 0 -- -- 84
2018-06-19 02:00:00 21.9 24 Oeste 32 Noroeste 0 -- -- 81
2018-06-19 01:00:00 21.7 18 Noroeste 24 Noroeste 0 -- -- 84
2018-06-19 00:00:00 21.5 15 Noroeste 23 Noroeste 0 -- -- 89
2018-06-18 23:00:00 21.5 13 Noroeste 23 Noroeste 0 -- -- 90
2018-06-18 22:00:00 21.6 13 Noroeste 24 Noroeste 0 -- -- 89
2018-06-18 21:00:00 21.8 19 Noroeste 27 Noroeste 0 -- -- 87
2018-06-18 20:00:00 22.2 24 Noroeste 28 Norte 0 -- -- 85
2018-06-18 19:00:00 22.7 24 Noroeste 40 Noroeste 0 -- -- 81
2018-06-18 18:00:00 23.5 28 Noroeste 39 Noroeste 0 -- -- 77
2018-06-18 17:00:00 24.1 28 Noroeste 38 Noroeste 0 -- -- 73
2018-06-18 16:00:00 24.3 31 Noroeste 38 Noroeste 0 -- -- 70
2018-06-18 15:00:00 26.2 22 Noroeste 27 Noroeste 0 -- -- 65
2018-06-18 14:00:00 26.5 14 Noroeste 25 Noroeste 0 -- -- 66
2018-06-18 13:00:00 26.6 14 Noroeste 20 Oeste 0 -- -- 63
2018-06-18 12:00:00 26.3 13 Noroeste 24 Oeste 0 -- -- 66
2018-06-18 11:00:00 24.6 22 Noroeste 26 Noroeste 0 -- -- 70
2018-06-18 10:00:00 23.2 15 Noroeste 20 Oeste 0 -- -- 69
2018-06-18 09:00:00 23 13 Noroeste 20 Oeste 0 -- -- 71
2018-06-18 08:00:00 22.9 5 Noroeste 6 Noroeste 0 -- -- 74
2018-06-18 07:00:00 20.9 0 Calma -- -- 0 -- -- 83
2018-06-18 06:00:00 21.1 0 Calma 15 Sudeste 0 -- -- 79
2018-06-18 05:00:00 21.1 12 Sur 21 Sur 0 -- -- 81
2018-06-18 04:00:00 21 10 Sudoeste 20 Sur 0 -- -- 88
2018-06-18 03:00:00 21.1 14 Noroeste 21 Noroeste 0 -- -- 91
2018-06-18 02:00:00 20.9 6 Noroeste 9 Noroeste 0 -- -- 94
2018-06-18 01:00:00 21 5 Noroeste 15 Noroeste 0 -- -- 93
2018-06-18 00:00:00 21 14 Noroeste 24 Noroeste 0 -- -- 92
2018-06-17 23:00:00 21.3 15 Noroeste 24 Noroeste 0 -- -- 89
2018-06-17 22:00:00 21.4 15 Noroeste 26 Noroeste 0 -- -- 88
2018-06-17 21:00:00 21.6 22 Noroeste 32 Noroeste 0 -- -- 84
2018-06-17 20:00:00 22.3 24 Noroeste 31 Noroeste 0 -- -- 80
2018-06-17 19:00:00 22.2 21 Noroeste 27 Oeste 0 -- -- 79
2018-06-17 18:00:00 23.3 21 Noroeste 31 Noroeste 0 -- -- 73
2018-06-17 17:00:00 23.8 21 Noroeste 28 Noroeste 0 -- -- 74
2018-06-17 16:00:00 24.9 10 Noroeste 18 Noroeste 0 -- -- 70
2018-06-17 15:00:00 23.7 10 Sudeste 22 Sudeste 0 -- -- 70
2018-06-17 14:00:00 24.8 17 Este 22 Este 0 -- -- 68
2018-06-17 13:00:00 24.6 16 Nordeste 21 Nordeste 0 -- -- 72
2018-06-17 12:00:00 24.4 13 Norte 19 Norte 0 -- -- 77
2018-06-17 11:00:00 25.9 10 Noroeste 13 Noroeste 0 -- -- 69
2018-06-17 10:00:00 24.7 9 Noroeste 11 Noroeste 0 -- -- 75
2018-06-17 09:00:00 22.9 10 Noroeste 17 Noroeste 0 -- -- 83
2018-06-17 08:00:00 21.3 13 Noroeste 19 Noroeste 0 -- -- 88
2018-06-17 07:00:00 20.8 14 Noroeste 18 Noroeste 0 -- -- 89
2018-06-17 06:00:00 20.3 11 Oeste 15 Oeste 0 -- -- 93
2018-06-17 05:00:00 20.3 12 Noroeste 15 Noroeste 0 -- -- 95
2018-06-17 04:00:00 20.5 10 Noroeste 14 Norte 0 -- -- 95
2018-06-17 03:00:00 20.7 8 Noroeste 17 Noroeste 0 -- -- 93
2018-06-17 02:00:00 20.8 9 Noroeste 19 Noroeste 0 -- -- 90
2018-06-17 01:00:00 20.9 10 Noroeste 16 Noroeste 0 -- -- 85
2018-06-17 00:00:00 20.9 9 Noroeste 20 Noroeste 0 -- -- 80
2018-06-16 23:00:00 21.3 17 Noroeste 26 Noroeste 0 -- -- 81
2018-06-16 22:00:00 21.6 21 Noroeste 28 Noroeste 0 -- -- 83
2018-06-16 21:00:00 21.6 17 Noroeste 34 Noroeste 0 -- -- 81
2018-06-16 20:00:00 22 22 Noroeste 32 Oeste 0 -- -- 80
2018-06-16 19:00:00 22.3 21 Noroeste 35 Noroeste 0 -- -- 77
2018-06-16 18:00:00 22.6 23 Noroeste 33 Noroeste 0 -- -- 73
2018-06-16 17:00:00 23.1 21 Norte 38 Norte 0 -- -- 72
2018-06-16 16:00:00 23.5 26 Noroeste 41 Noroeste 0 -- -- 70
2018-06-16 15:00:00 23.9 23 Noroeste 41 Norte 0 -- -- 69
2018-06-16 14:00:00 23.8 26 Noroeste 32 Noroeste 0 -- -- 64
2018-06-16 13:00:00 26.4 24 Noroeste 28 Noroeste 0 -- -- 58
2018-06-16 12:00:00 26.6 19 Noroeste 23 Noroeste 0 -- -- 57
2018-06-16 11:00:00 25.6 13 Noroeste 15 Noroeste 0 -- -- 65
2018-06-16 10:00:00 24.9 0 Calma 11 Noroeste 0 -- -- 65
2018-06-16 09:00:00 23.6 10 Noroeste 15 Norte 0 -- -- 79
2018-06-16 08:00:00 21.6 14 Noroeste 18 Noroeste 0 -- -- 82
2018-06-16 07:00:00 20.6 11 Noroeste 14 Norte 0 -- -- 76
2018-06-16 06:00:00 20.3 12 Noroeste 14 Noroeste 0 -- -- 80
2018-06-16 05:00:00 20 0 Calma -- -- 0 -- -- 92
2018-06-16 04:00:00 20.5 0 Calma -- -- 0 -- -- 89
2018-06-16 03:00:00 20.6 4 Este 11 Nordeste 0 -- -- 92
2018-06-16 02:00:00 20.9 3 Norte 14 Noroeste 0 -- -- 92
2018-06-16 01:00:00 21 12 Norte 14 Noroeste 0 -- -- 92
2018-06-16 00:00:00 21.1 10 Norte 15 Norte 0 -- -- 91
2018-06-15 23:00:00 21.1 14 Norte 16 Norte 0 -- -- 91
2018-06-15 22:00:00 21.2 10 Norte 15 Norte 0 -- -- 91
2018-06-15 21:00:00 21.3 14 Noroeste 19 Noroeste 0 -- -- 89
2018-06-15 20:00:00 21.7 16 Noroeste 21 Noroeste 0 -- -- 86
2018-06-15 19:00:00 22.7 17 Norte 19 Norte 0 -- -- 77
2018-06-15 18:00:00 24.1 11 Noroeste 19 Norte 0 -- -- 70
2018-06-15 17:00:00 24.2 17 Noroeste 34 Noroeste 0 -- -- 65
2018-06-15 16:00:00 24.7 24 Noroeste 42 Noroeste 0 -- -- 63
2018-06-15 15:00:00 24.2 29 Noroeste 43 Noroeste 0 -- -- 57
2018-06-15 14:00:00 23.9 23 Noroeste 31 Noroeste 0 -- -- 64
2018-06-15 13:00:00 23.8 17 Noroeste 22 Noroeste 0 -- -- 75
2018-06-15 12:00:00 -- -- -- -- -- 0 -- -- --
2018-06-15 11:00:00 24.5 17 Norte 21 Norte 0 -- -- 69
2018-06-15 10:00:00 23.2 9 Norte 11 Norte 0 -- -- 71
2018-06-15 09:00:00 23 0 Calma 7 Nordeste 0 -- -- 69
2018-06-15 08:00:00 20.8 5 Nordeste 9 Nordeste 0 -- -- 74
2018-06-15 07:00:00 19.6 5 Norte 12 Noroeste 0 -- -- 82
2018-06-15 06:00:00 19.2 8 Noroeste 19 Noroeste 0 -- -- 90
2018-06-15 05:00:00 19.3 7 Noroeste 14 Noroeste 0 -- -- 91
2018-06-15 04:00:00 19.5 11 Noroeste 19 Noroeste 0 -- -- 93
2018-06-15 03:00:00 19.3 8 Noroeste 16 Noroeste 0 -- -- 93
2018-06-15 02:00:00 19.5 11 Noroeste 14 Noroeste 0 -- -- 92
2018-06-15 01:00:00 19.7 12 Noroeste 17 Noroeste 0 -- -- 91
2018-06-15 00:00:00 20 13 Noroeste 17 Noroeste 0 -- -- 87
2018-06-14 23:00:00 20.2 14 Noroeste 20 Noroeste 0 -- -- 84
2018-06-14 22:00:00 21 15 Noroeste 24 Noroeste 0 -- -- 80
2018-06-14 21:00:00 21.2 14 Noroeste 21 Oeste 0 -- -- 78
2018-06-14 20:00:00 21.2 4 Oeste 10 Sur 0 -- -- 76
2018-06-14 19:00:00 21.5 5 Sudoeste 13 Sudeste 0 -- -- 73
2018-06-14 18:00:00 21.8 8 Sur 16 Este 0 -- -- 73
2018-06-14 17:00:00 22 7 Sudeste 15 Sudeste 0 -- -- 72
2018-06-14 16:00:00 22.4 6 Sudeste 15 Este 0 -- -- 69
2018-06-14 15:00:00 22.5 10 Este 17 Sudeste 0 -- -- 69
2018-06-14 14:00:00 22.6 13 Este 22 Este 0 -- -- 69
2018-06-14 13:00:00 23.5 11 Este 21 Este 0 -- -- 67
2018-06-14 12:00:00 23.2 16 Este 27 Este 0 -- -- 69
2018-06-14 11:00:00 23.7 21 Este 27 Este 0 -- -- 68
2018-06-14 10:00:00 22.9 13 Sudeste 20 Sur 0 -- -- 69
2018-06-14 09:00:00 22.9 6 Sudoeste 12 Sur 0 -- -- 69
2018-06-14 08:00:00 22.3 4 Sur 10 Sudeste 0 -- -- 72
2018-06-14 07:00:00 21.3 3 Nordeste 13 Norte 0 -- -- 72
2018-06-14 06:00:00 21.1 0 Calma 6 Norte 0 -- -- 66
2018-06-14 05:00:00 21.1 3 Noroeste 8 Noroeste 0 -- -- 65
2018-06-14 04:00:00 21.3 0 Calma 10 Noroeste 0 -- -- 64
2018-06-14 03:00:00 21.7 6 Noroeste 11 Norte 0 -- -- 59
2018-06-14 02:00:00 21.1 4 Noroeste 8 Norte 0 -- -- 66
2018-06-14 01:00:00 21.5 7 Norte 9 Norte 0 -- -- 66
2018-06-14 00:00:00 21.5 6 Norte 23 Noroeste 0 -- -- 70
2018-06-13 23:00:00 21.2 20 Norte 25 Norte 0 -- -- 73
2018-06-13 22:00:00 21.2 14 Norte 32 Norte 0 -- -- 72
2018-06-13 21:00:00 21.5 28 Norte 38 Norte 0 -- -- 72
2018-06-13 20:00:00 22.1 28 Noroeste 32 Norte 0 -- -- 69
2018-06-13 19:00:00 22.2 18 Este 26 Norte 0 -- -- 68
2018-06-13 18:00:00 23.7 24 Norte 27 Norte 0 -- -- 65
2018-06-13 17:00:00 23.9 8 Norte 40 Norte 0 -- -- 62
2018-06-13 16:00:00 23.3 29 Norte 44 Norte 0 -- -- 62
2018-06-13 15:00:00 22.9 30 Norte 44 Norte 0 -- -- 66
2018-06-13 14:00:00 23 30 Norte 42 Norte 0 -- -- 67
2018-06-13 13:00:00 23.6 21 Norte 31 Norte 0 -- -- 64
2018-06-13 12:00:00 22.8 19 Norte 30 Norte 0 -- -- 66
2018-06-13 11:00:00 23.4 14 Norte 22 Norte 0 -- -- 66
2018-06-13 10:00:00 23 12 Norte 15 Norte 0 -- -- 66
2018-06-13 09:00:00 23.6 0 Calma 5 Sur 0 -- -- 65
2018-06-13 08:00:00 22.5 0 Calma 19 Norte 0 -- -- 69
2018-06-13 07:00:00 20.5 14 Norte 29 Norte 0 -- -- 75
2018-06-13 06:00:00 20.2 13 Norte 31 Norte 0 -- -- 70
2018-06-13 05:00:00 20.5 19 Norte 35 Norte 0 -- -- 68
2018-06-13 04:00:00 20.7 15 Norte 28 Norte 0 -- -- 68
2018-06-13 03:00:00 20.7 8 Norte 19 Norte 0 -- -- 71
2018-06-13 02:00:00 20.9 18 Norte 31 Norte 0 -- -- 73
2018-06-13 01:00:00 21.2 23 Norte 33 Norte 0 -- -- 69
2018-06-13 00:00:00 21.5 24 Norte 34 Norte 0 -- -- 63
2018-06-12 23:00:00 22 23 Norte 31 Norte 0 -- -- 58
2018-06-12 22:00:00 22.4 13 Norte 23 Norte 0 -- -- 58
2018-06-12 21:00:00 22.9 10 Norte 20 Norte 0 -- -- 67
2018-06-12 20:00:00 24.3 12 Norte 34 Norte 0 -- -- 48
2018-06-12 19:00:00 24 26 Norte 48 Norte 0 -- -- 55
2018-06-12 18:00:00 24.1 27 Norte 41 Norte 0 -- -- 58
2018-06-12 17:00:00 23.4 24 Norte 38 Norte 0 -- -- 71
2018-06-12 16:00:00 24.1 22 Norte 34 Norte 0 -- -- 73
2018-06-12 15:00:00 23.2 29 Norte 37 Norte 0 -- -- 80
2018-06-12 14:00:00 23.8 9 Norte 46 Norte 0 -- -- 76
2018-06-12 13:00:00 23.9 34 Norte 45 Norte 0 -- -- 81
2018-06-12 12:00:00 23 23 Norte 42 Norte 0 -- -- 83
2018-06-12 11:00:00 23.2 29 Norte 35 Norte 0 -- -- 81
2018-06-12 10:00:00 22.8 19 Norte 28 Norte 0 -- -- 81
2018-06-12 09:00:00 21.8 14 Norte 22 Norte 0 -- -- 83
2018-06-12 08:00:00 22.4 10 Norte 23 Norte 0 -- -- 75
2018-06-12 07:00:00 20.6 19 Norte 24 Norte 0 -- -- 75
2018-06-12 06:00:00 20.1 12 Norte 19 Norte 0 -- -- 69
2018-06-12 05:00:00 20.1 13 Norte 21 Norte 0 -- -- 73
2018-06-12 04:00:00 20.1 9 Norte 22 Norte 0 -- -- 79
2018-06-12 03:00:00 20 5 Norte 17 Norte 0 -- -- 84
2018-06-12 02:00:00 20.5 9 Norte 23 Norte 0 -- -- 80
2018-06-12 01:00:00 20.4 13 Norte 24 Norte 0 -- -- 77
2018-06-12 00:00:00 20.2 7 Norte 14 Norte 0 -- -- 77
2018-06-11 23:00:00 20.8 9 Norte 14 Norte 0 -- -- 91
2018-06-11 22:00:00 21.1 0 Calma 14 Sudeste 0 -- -- 88
2018-06-11 21:00:00 21.4 10 Sur 21 Este 0 -- -- 85
2018-06-11 20:00:00 22.1 10 Este 13 Nordeste 0 -- -- 87
2018-06-11 19:00:00 22.4 8 Este 18 Sudoeste 0 -- -- 84
2018-06-11 18:00:00 22.7 13 Oeste 22 Sudoeste 0 -- -- 78
2018-06-11 17:00:00 23.1 15 Sudoeste 22 Sur 0 -- -- 75
2018-06-11 16:00:00 23.9 18 Sur 21 Sur 0 -- -- 72
2018-06-11 15:00:00 24.6 12 Este 16 Sudeste 0 -- -- 69
2018-06-11 14:00:00 24.3 4 Sur 13 Noroeste 0 -- -- 69
2018-06-11 13:00:00 25.1 7 Noroeste 11 Noroeste 0 -- -- 69
2018-06-11 12:00:00 24.4 3 Sur 10 Sudoeste -- -- -- 88
2018-06-11 11:00:00 -- -- -- -- -- -- -- -- --
2018-06-11 10:00:00 -- 5 Norte 12 Norte 0 -- -- --
2018-06-11 09:00:00 -- 0 Calma -- -- 0 -- -- --
2018-06-11 08:00:00 -- 4 Norte 21 Norte 0 -- -- --
2018-06-11 07:00:00 -- 17 Norte 20 Norte 0 -- -- --
2018-06-11 06:00:00 -- 10 Norte 17 Norte 0 -- -- --
2018-06-11 05:00:00 -- 7 Norte 14 Norte 0 -- -- --
2018-06-11 04:00:00 -- 9 Norte 15 Norte 0 -- -- --
2018-06-11 03:00:00 -- 8 Norte 19 Norte 0 -- -- --
2018-06-11 02:00:00 -- 9 Norte 20 Norte 0 -- -- --
2018-06-11 01:00:00 -- 6 Norte 25 Norte 0 -- -- --
2018-06-11 00:00:00 -- 12 Norte 21 Norte 0 -- -- --
2018-06-10 23:00:00 -- 9 Norte 59 Norte 0 -- -- --
2018-06-10 22:00:00 -- 0 Calma 8 Norte 0 -- -- --
2018-06-10 21:00:00 -- 0 Calma 10 Norte 0 -- -- --
2018-06-10 20:00:00 -- 4 Norte 15 Norte 0 -- -- --
2018-06-10 19:00:00 -- 3 Norte 21 Norte 0 -- -- --
2018-06-10 18:00:00 -- 4 Norte 24 Norte 0 -- -- --
2018-06-10 17:00:00 -- 8 Norte 20 Norte 0 -- -- --
2018-06-10 16:00:00 -- 10 Norte 19 Norte 0 -- -- --
2018-06-10 15:00:00 -- 14 Norte 18 Norte 0 -- -- --
2018-06-10 14:00:00 -- 12 Norte 17 Norte 0 -- -- --
2018-06-10 13:00:00 -- 11 Norte 22 Norte 0 -- -- --
2018-06-10 12:00:00 -- 15 Norte 31 Norte 0 -- -- --
2018-06-10 11:00:00 -- 23 Norte 39 Norte 0 -- -- --
2018-06-10 10:00:00 -- 26 Norte 53 Norte 0 -- -- --
2018-06-10 09:00:00 -- 39 Norte 69 Norte 0 -- -- --
2018-06-10 08:00:00 -- 34 Norte 55 Norte 0 -- -- --
2018-06-10 07:00:00 -- 31 Norte 44 Norte 0 -- -- --
2018-06-10 06:00:00 -- 4 Norte 20 Norte 0 -- -- --
2018-06-10 05:00:00 -- 14 Norte 35 Norte 0 -- -- --
2018-06-10 04:00:00 -- 22 Norte 33 Norte 0 -- -- --
2018-06-10 03:00:00 -- 8 Norte 26 Norte 0 -- -- --
2018-06-10 02:00:00 -- 15 Norte 18 Norte 0 -- -- --
2018-06-10 01:00:00 -- 9 Norte 15 Norte 0 -- -- --
2018-06-10 00:00:00 -- 0 Calma 13 Norte 0 -- -- --
2018-06-09 23:00:00 -- 9 Norte 19 Norte 0 -- -- --
2018-06-09 22:00:00 -- 13 Norte 26 Norte 0 -- -- --
2018-06-09 21:00:00 -- 18 Norte 30 Norte 0 -- -- --
2018-06-09 20:00:00 -- 14 Norte 20 Norte 0 -- -- --
2018-06-09 19:00:00 -- 19 Norte 23 Norte 0 -- -- --
2018-06-09 18:00:00 -- 15 Norte 19 Norte 0 -- -- --
2018-06-09 17:00:00 -- 17 Norte 18 Norte 0 -- -- --
2018-06-09 16:00:00 -- 14 Norte 23 Norte 0 -- -- --
2018-06-09 15:00:00 -- 20 Norte 28 Norte 0 -- -- --
2018-06-09 14:00:00 -- 22 Norte 43 Norte 0 -- -- --
2018-06-09 13:00:00 -- 22 Norte 34 Norte 0 -- -- --
2018-06-09 12:00:00 -- 15 Norte 21 Norte 0 -- -- --
2018-06-09 11:00:00 -- 15 Norte 18 Norte 0 -- -- --
2018-06-09 10:00:00 -- 14 Norte 21 Norte 0 -- -- --
2018-06-09 09:00:00 -- 18 Norte 21 Norte 0 -- -- --
2018-06-09 08:00:00 -- 10 Norte 13 Norte 0 -- -- --
2018-06-09 07:00:00 -- 6 Norte 11 Norte 0 -- -- --
2018-06-09 06:00:00 -- 8 Norte 22 Norte 0 -- -- --
2018-06-09 05:00:00 -- 21 Norte 30 Norte 0 -- -- --
2018-06-09 04:00:00 -- 19 Norte 26 Norte 0 -- -- --
2018-06-09 03:00:00 -- 17 Norte 20 Norte 0 -- -- --
2018-06-09 02:00:00 -- 0 Calma 18 Norte 0 -- -- --
2018-06-09 01:00:00 -- 12 Norte 18 Norte 0 -- -- --
2018-06-09 00:00:00 -- 13 Norte 17 Norte 0 -- -- --
2018-06-08 23:00:00 -- 12 Norte 16 Norte 0 -- -- --
2018-06-08 22:00:00 -- 9 Norte 20 Norte 0 -- -- --
2018-06-08 21:00:00 -- 13 Norte 28 Norte 0 -- -- --
2018-06-08 20:00:00 -- 23 Norte 34 Norte 0 -- -- --
2018-06-08 19:00:00 -- 24 Norte 45 Norte 0 -- -- --
2018-06-08 18:00:00 -- 37 Norte 53 Norte 0 -- -- --
2018-06-08 17:00:00 -- 33 Norte 49 Norte 0 -- -- --
2018-06-08 16:00:00 -- 28 Norte 44 Norte 0 -- -- --
2018-06-08 15:00:00 -- 27 Norte 47 Norte 0 -- -- --
2018-06-08 14:00:00 -- 26 Norte 38 Norte 0 -- -- --
2018-06-08 13:00:00 -- 32 Norte -- -- -- -- -- --
2018-06-08 12:00:00 -- 24 Noroeste -- -- -- -- -- --
2018-06-08 11:00:00 -- -- -- -- -- -- -- -- --
2018-06-08 10:00:00 -- -- -- -- -- -- -- -- --
2018-06-08 09:00:00 -- 12 Sur 15 Sur 0 -- -- --
2018-06-08 08:00:00 -- 0 Calma -- -- 0 -- -- --
2018-06-08 07:00:00 -- 0 Calma -- -- 0 -- -- --
2018-06-08 06:00:00 -- 0 Calma -- -- 0 -- -- --
2018-06-08 05:00:00 -- 0 Calma 5 Sur 0 -- -- --
2018-06-08 04:00:00 -- 5 Sur 8 Sur 0 -- -- --
2018-06-08 03:00:00 -- 6 Sur 8 Sur 0 -- -- --
2018-06-08 02:00:00 -- 4 Sur 11 Sur 0 -- -- --
2018-06-08 01:00:00 -- 8 Sur 13 Sur 0 -- -- --
2018-06-08 00:00:00 -- 11 Sur 23 Sur 0 -- -- --
2018-06-07 23:00:00 -- 12 Sur 18 Sur 0 -- -- --
2018-06-07 22:00:00 -- 0 Calma 24 Sur 0 -- -- --
2018-06-07 21:00:00 -- 18 Sur 36 Sur 0 -- -- --
2018-06-07 20:00:00 -- 27 Sur 40 Sur 0 -- -- --
2018-06-07 19:00:00 -- 21 Sur 32 Sur 0 -- -- --
2018-06-07 18:00:00 -- 22 Sur 35 Sur 0 -- -- --
2018-06-07 17:00:00 -- 26 Sur 39 Sur 0 -- -- --
2018-06-07 16:00:00 -- 27 Sur 40 Sur 0 -- -- --
2018-06-07 15:00:00 -- 9 Sur 27 Sur 0 -- -- --
2018-06-07 14:00:00 -- 21 Sur 31 Sur 0 -- -- --
2018-06-07 13:00:00 -- 16 Sur 36 Sur 0 -- -- --
2018-06-07 12:00:00 -- 13 Sur 23 Sur 0 -- -- --
2018-06-07 11:00:00 -- 11 Sur 15 Sur 0 -- -- --
2018-06-07 10:00:00 -- 0 Calma 15 Sur 0 -- -- --
2018-06-07 09:00:00 -- -- -- -- -- -- -- -- --
2018-06-07 08:00:00 -- 8 Sur 11 Sur 0 -- -- --
2018-06-07 07:00:00 -- 6 Sur 12 Sur 0 -- -- --
2018-06-07 06:00:00 -- 5 Sur 11 Sur 0 -- -- --
2018-06-07 05:00:00 -- 10 Sur 35 Sur 0 -- -- --
2018-06-07 04:00:00 -- 10 Sur 13 Sur 0 -- -- --
2018-06-07 03:00:00 -- 0 Calma 9 Sur 0 -- -- --
2018-06-07 02:00:00 -- 9 Sur 10 Sur 0 -- -- --
2018-06-07 01:00:00 -- 4 Sudoeste 10 Sudoeste 0 -- -- --
2018-06-07 00:00:00 -- 8 Sudoeste 16 Sudoeste 0 -- -- --
2018-06-06 23:00:00 -- 15 Sudoeste 20 Sudoeste 0 -- -- --
2018-06-06 22:00:00 -- 15 Sudoeste 27 Sudoeste 0 -- -- --
2018-06-06 21:00:00 -- 23 Sudoeste 39 Sudoeste 0 -- -- --
2018-06-06 20:00:00 -- 27 Sudoeste 41 Sudoeste 0 -- -- --
2018-06-06 19:00:00 -- 31 Sudoeste 44 Sudoeste 0 -- -- --
2018-06-06 18:00:00 -- 27 Sudoeste 50 Sudoeste 0 -- -- --
2018-06-06 17:00:00 -- 28 Sudoeste 50 Sudoeste 0 -- -- --
2018-06-06 16:00:00 -- 29 Sudoeste 45 Sudoeste 0 -- -- --
2018-06-06 15:00:00 -- 29 Sudoeste 43 Sudoeste 0 -- -- --
2018-06-06 14:00:00 -- 28 Sudoeste 45 Sudoeste 0 -- -- --
2018-06-06 13:00:00 -- 35 Sudoeste 48 Sudoeste 0 -- -- --
2018-06-06 12:00:00 -- 28 Sudoeste 48 Sudoeste 0 -- -- --
2018-06-06 11:00:00 -- 27 Sudoeste 43 Sudoeste 0 -- -- --
2018-06-06 10:00:00 -- 26 Sudoeste 43 Sudoeste 0 -- -- --
2018-06-06 09:00:00 -- 22 Sudoeste 36 Sudoeste 0 -- -- --
2018-06-06 08:00:00 -- 18 Sudoeste 28 Sudoeste 0 -- -- --
2018-06-06 07:00:00 -- 20 Sur 34 Sur 0 -- -- --
2018-06-06 06:00:00 -- 26 Sur 36 Sur 0 -- -- --
2018-06-06 05:00:00 -- 21 Sur 30 Sur 0 -- -- --
2018-06-06 04:00:00 -- 11 Sur 17 Sur 0 -- -- --
2018-06-06 03:00:00 -- 12 Sur 31 Sur 0 -- -- --
2018-06-06 02:00:00 -- 20 Sur 32 Sur 0 -- -- --
2018-06-06 01:00:00 -- 20 Sur 35 Sur 0 -- -- --
2018-06-06 00:00:00 -- 27 Sur 33 Sur 0 -- -- --
2018-06-05 23:00:00 -- 19 Sur 31 Sur 0 -- -- --
2018-06-05 22:00:00 -- 5 Sur 14 Sur 0 -- -- --
2018-06-05 21:00:00 -- 10 Sur 24 Sur 0 -- -- --
2018-06-05 20:00:00 -- 15 Sur 33 Sur 0 -- -- --
2018-06-05 19:00:00 -- 9 Sur 17 Sur 0 -- -- --
2018-06-05 18:00:00 -- 13 Sur 27 Sur 0 -- -- --
2018-06-05 17:00:00 -- 23 Sur 43 Sur 0 -- -- --
2018-06-05 16:00:00 -- 27 Sur 47 Sur 0 -- -- --
2018-06-05 15:00:00 -- 32 Sur 47 Sur 0 -- -- --
2018-06-05 14:00:00 -- 25 Sur 42 Sur 0 -- -- --
2018-06-05 13:00:00 -- 25 Sur 41 Sur 0 -- -- --
2018-06-05 12:00:00 -- 31 Sur 37 Sur 0 -- -- --
2018-06-05 11:00:00 -- 19 Sur -- -- -- -- -- --
2018-06-05 10:00:00 -- -- -- -- -- -- -- -- --
2018-06-05 09:00:00 -- 7 Noroeste 14 Noroeste 0 -- -- --
2018-06-05 08:00:00 -- 9 Noroeste 19 Noroeste 0 -- -- --
2018-06-05 07:00:00 -- 2 Noroeste 15 Noroeste 0 -- -- --
2018-06-05 06:00:00 -- 13 Noroeste 16 Noroeste 0 -- -- --
2018-06-05 05:00:00 -- 8 Noroeste 17 Noroeste 0 -- -- --
2018-06-05 04:00:00 -- 12 Noroeste 18 Noroeste 0 -- -- --
2018-06-05 03:00:00 -- 10 Noroeste 23 Noroeste 0 -- -- --
2018-06-05 02:00:00 -- 12 Noroeste 26 Noroeste 0 -- -- --
2018-06-05 01:00:00 -- 9 Noroeste 21 Noroeste 0 -- -- --
2018-06-05 00:00:00 -- 17 Noroeste 20 Noroeste 0 -- -- --
2018-06-04 23:00:00 -- 3 Noroeste 17 Noroeste 0 -- -- --
2018-06-04 22:00:00 -- 3 Noroeste 17 Norte 0 -- -- --
2018-06-04 21:00:00 -- 9 Norte 25 Norte 0 -- -- --
2018-06-04 20:00:00 -- 19 Norte 32 Norte 0 -- -- --
2018-06-04 19:00:00 -- 16 Norte 41 Norte 0 -- -- --
2018-06-04 18:00:00 -- 22 Norte 41 Noroeste 0 -- -- --
2018-06-04 17:00:00 -- 25 Noroeste 47 Noroeste 0 -- -- --
2018-06-04 16:00:00 -- 27 Noroeste 45 Noroeste 0 -- -- --
2018-06-04 15:00:00 -- 23 Noroeste 42 Noroeste 0 -- -- --
2018-06-04 14:00:00 -- 23 Noroeste 29 Noroeste 0 -- -- --
2018-06-04 13:00:00 -- 22 Noroeste -- -- -- -- -- --
2018-06-04 12:00:00 -- -- -- -- -- -- -- -- --
2018-06-04 11:00:00 -- -- -- -- -- -- -- -- --
2018-06-04 10:00:00 -- 13 Norte 22 Norte 0 -- -- --
2018-06-04 09:00:00 -- 15 Norte 20 Norte 0 -- -- --
2018-06-04 08:00:00 -- 0 Calma -- -- 0 -- -- --
2018-06-04 07:00:00 -- 0 Calma -- -- 0 -- -- --
2018-06-04 06:00:00 -- 0 Calma -- -- 0 -- -- --
2018-06-04 05:00:00 -- 5 Norte 20 Norte 0 -- -- --
2018-06-04 04:00:00 -- 16 Norte 23 Norte 0 -- -- --
2018-06-04 03:00:00 -- 9 Norte 21 Norte 0 -- -- --
2018-06-04 02:00:00 -- 10 Norte 21 Norte 0 -- -- --
2018-06-04 01:00:00 -- 15 Norte 20 Norte 0 -- -- --
2018-06-04 00:00:00 -- 10 Norte 19 Norte 0 -- -- --
2018-06-03 23:00:00 -- 4 Noroeste 15 Norte 0 -- -- --
2018-06-03 22:00:00 -- 10 Norte 18 Norte 0 -- -- --
2018-06-03 21:00:00 -- 9 Norte 35 Norte 0 -- -- --
2018-06-03 20:00:00 -- 29 Norte 47 Norte 0 -- -- --
2018-06-03 19:00:00 -- 36 Norte 45 Norte 0 -- -- --
2018-06-03 18:00:00 -- 35 Norte 46 Norte 0 -- -- --
2018-06-03 17:00:00 -- 35 Norte 51 Norte 0 -- -- --
2018-06-03 16:00:00 -- 34 Norte 55 Norte 0 -- -- --
2018-06-03 15:00:00 -- 25 Norte 36 Norte 0 -- -- --
2018-06-03 14:00:00 -- 16 Norte 27 Norte 0 -- -- --
2018-06-03 13:00:00 -- 17 Norte 49 Norte 0 -- -- --
2018-06-03 12:00:00 -- 37 Norte 59 Norte 0 -- -- --
2018-06-03 11:00:00 -- 37 Noroeste 43 Noroeste 0 -- -- --
2018-06-03 10:00:00 19.5 24 Sudeste 31 Sudeste 0 -- -- 97
2018-06-03 09:00:00 19.3 21 Sudeste 28 Sudeste 0 -- -- 98
2018-06-03 08:00:00 19 18 Sur 25 Sur 0 -- -- 98
2018-06-03 07:00:00 18.9 21 Sudeste 27 Sudeste 0 -- -- 97
2018-06-03 06:00:00 19 18 Sudeste 25 Sur 0 -- -- 98
2018-06-03 05:00:00 18.8 18 Sur 24 Sudeste 0 -- -- 97
2018-06-03 04:00:00 18.8 19 Sudeste 23 Sudeste 0 -- -- 97
2018-06-03 03:00:00 18.8 12 Sur 15 Sudeste 0 -- -- 97
2018-06-03 02:00:00 18.8 14 Sudeste 17 Sudeste 0 -- -- 97
2018-06-03 01:00:00 18.6 10 Sur 12 Sudeste 0 -- -- 97
2018-06-03 00:00:00 18.9 0 Calma 7 Sudoeste 0 -- -- 97
2018-06-02 23:00:00 18.7 0 Calma 9 Norte 0 -- -- 96
2018-06-02 22:00:00 18.8 7 Norte 10 Nordeste 0 -- -- 96
2018-06-02 21:00:00 19.1 9 Nordeste 13 Norte 0 -- -- 96
2018-06-02 20:00:00 19.8 10 Norte 12 Norte 0 -- -- 95
2018-06-02 19:00:00 19.2 8 Nordeste 15 Nordeste 0 -- -- 95
2018-06-02 18:00:00 20.4 12 Nordeste 15 Nordeste 0 -- -- 94
2018-06-02 17:00:00 21.5 3 Norte 13 Norte 0 -- -- 93
2018-06-02 16:00:00 22 13 Norte 17 Norte 0 -- -- 94
2018-06-02 15:00:00 20.4 0 Calma 6 Nordeste 0 -- -- 95
2018-06-02 14:00:00 19.8 0 Calma 13 Nordeste 0 -- -- 95
2018-06-02 13:00:00 19.6 2 Este 9 Este 0 -- -- 95
2018-06-02 12:00:00 19.9 7 Sudeste 12 Sudeste 0 -- -- 95
2018-06-02 11:00:00 19.6 12 Sur 17 Sur 0 -- -- 95
2018-06-02 10:00:00 19.5 14 Sudeste 21 Sudeste 0 -- -- 94
2018-06-02 09:00:00 18.9 6 Este 14 Este 0 -- -- 96
2018-06-02 08:00:00 18.6 5 Este 18 Nordeste 0 -- -- 96
2018-06-02 07:00:00 18.4 7 Nordeste 17 Norte 0 -- -- 96
2018-06-02 06:00:00 18 0 Calma 17 Norte 0 -- -- 95
2018-06-02 05:00:00 18 15 Norte 18 Noroeste 0 -- -- 93
2018-06-02 04:00:00 18 12 Norte 13 Norte 0 -- -- 91
2018-06-02 03:00:00 17.5 0 Calma -- -- 0 -- -- 92
2018-06-02 02:00:00 17.7 0 Calma 4 Sudoeste 0 -- -- 92
2018-06-02 01:00:00 17.9 4 Sudoeste 15 Sur 0 -- -- 92
2018-06-02 00:00:00 18.4 13 Sur 18 Sur 0 -- -- 91
2018-06-01 23:00:00 18.2 13 Sur 18 Sur 0 -- -- 91
2018-06-01 22:00:00 18.5 15 Sur 23 Sur 0 -- -- 92
2018-06-01 21:00:00 18.9 14 Sur 18 Sur 0 -- -- 95
2018-06-01 20:00:00 19.3 12 Sur 34 Sudoeste 0 -- -- 95
2018-06-01 19:00:00 20.4 17 Sur 24 Sur 0 -- -- 91
2018-06-01 18:00:00 21.6 22 Sur 28 Sur 0 -- -- 88
2018-06-01 17:00:00 21.1 20 Sur 27 Sur 0 -- -- 90
2018-06-01 16:00:00 22.4 23 Sur 32 Sur 0 -- -- 88
2018-06-01 15:00:00 22.3 23 Sudeste 26 Sudeste 0 -- -- 89
2018-06-01 14:00:00 22.4 7 Sudeste 14 Nordeste 0 -- -- 91
2018-06-01 13:00:00 22 5 Este 14 Nordeste 0 -- -- 91
2018-06-01 12:00:00 -- 10 Nordeste -- -- -- -- -- --
2018-06-01 11:00:00 -- -- -- -- -- -- -- -- --
2018-06-01 10:00:00 -- -- -- -- -- -- -- -- --
2018-06-01 09:00:00 -- -- -- -- -- -- -- -- --
2018-06-01 08:00:00 -- -- -- -- -- -- -- -- --
2018-06-01 07:00:00 -- -- -- -- -- -- -- -- --
2018-06-01 06:00:00 -- -- -- -- -- -- -- -- --
2018-06-01 05:00:00 -- -- -- -- -- -- -- -- --
2018-06-01 04:00:00 -- -- -- -- -- -- -- -- --
2018-06-01 03:00:00 -- -- -- -- -- -- -- -- --
2018-06-01 02:00:00 -- -- -- -- -- -- -- -- --
2018-06-01 01:00:00 -- -- -- -- -- -- -- -- --
2018-06-01 00:00:00 -- -- -- -- -- -- -- -- --
2018-05-31 23:00:00 -- -- -- -- -- -- -- -- --
2018-05-31 22:00:00 -- -- -- -- -- -- -- -- --
2018-05-31 21:00:00 -- -- -- -- -- -- -- -- --
2018-05-31 20:00:00 -- -- -- -- -- -- -- -- --
2018-05-31 19:00:00 -- -- -- -- -- -- -- -- --
2018-05-31 18:00:00 -- -- -- -- -- -- -- -- --
2018-05-31 17:00:00 -- -- -- -- -- -- -- -- --
2018-05-31 16:00:00 -- -- -- -- -- -- -- -- --
2018-05-31 15:00:00 -- -- -- -- -- -- -- -- --
2018-05-31 14:00:00 -- -- -- -- -- -- -- -- --
2018-05-31 13:00:00 -- -- -- -- -- -- -- -- --
2018-05-31 12:00:00 -- -- -- -- -- -- -- -- --
2018-05-31 11:00:00 20.2 29 Sur 42 Sur 0 -- -- 92
2018-05-31 10:00:00 20.5 23 Sur 30 Sudeste 0 -- -- 90
2018-05-31 09:00:00 20.2 10 Sur 29 Sudoeste 0 -- -- 91
2018-05-31 08:00:00 19.3 11 Sur 22 Sudoeste 0 -- -- 94
2018-05-31 07:00:00 17.2 17 Sur 25 Sur 0 -- -- 96
2018-05-31 06:00:00 16.6 13 Sur 26 Sur 0 -- -- 96
2018-05-31 05:00:00 16.6 17 Sudoeste 20 Sudoeste 0 -- -- 96
2018-05-31 04:00:00 17 12 Sur 23 Sudoeste 0 -- -- 95
2018-05-31 03:00:00 17.2 14 Sur 27 Sudoeste 0 -- -- 95
2018-05-31 02:00:00 17.6 19 Sudoeste 38 Sudoeste 0 -- -- 95
2018-05-31 01:00:00 17.9 25 Sudoeste 32 Sudoeste 0 -- -- 95
2018-05-31 00:00:00 18.2 12 Sur 24 Sudoeste 0 -- -- 94
2018-05-30 23:00:00 18.7 19 Sudoeste 25 Sudoeste 0 -- -- 93
2018-05-30 22:00:00 18.9 12 Sudoeste 19 Sudoeste 0 -- -- 93
2018-05-30 21:00:00 19.5 0 Calma 29 Sur 0 -- -- 93
2018-05-30 20:00:00 19.8 24 Sur 44 Sur 0 -- -- 92
2018-05-30 19:00:00 18.8 31 Sur 48 Sur 0 -- -- 94
2018-05-30 18:00:00 19.4 24 Sur 50 Sur 0 -- -- 94
2018-05-30 17:00:00 19.5 27 Sur 49 Sur 0 -- -- 93
2018-05-30 16:00:00 20.2 33 Sur 53 Sur 0 -- -- 92
2018-05-30 15:00:00 20.4 38 Sur 49 Sur 0 -- -- 91
2018-05-30 14:00:00 20.1 33 Sur 54 Sudeste 0 -- -- 91
2018-05-30 13:00:00 20 32 Sur 47 Sur 0 -- -- 91
2018-05-30 12:00:00 19.9 28 Sur 43 Sur 0 -- -- 93
2018-05-30 11:00:00 20.3 27 Sur 31 Sur 0 -- -- 93
2018-05-30 10:00:00 20.5 20 Sur 26 Sur 0 -- -- 93
2018-05-30 09:00:00 20.2 11 Sur 15 Sudeste 0 -- -- 93
2018-05-30 08:00:00 19.6 5 Sur 10 Sudoeste 0 -- -- 94
2018-05-30 07:00:00 17.7 9 Sudoeste 14 Sudoeste 0 -- -- 94
2018-05-30 06:00:00 17.1 12 Sudoeste 16 Sur 0 -- -- 93
2018-05-30 05:00:00 17.5 10 Sur 13 Sur 0 -- -- 92
2018-05-30 04:00:00 17.3 9 Sudoeste 12 Sur 0 -- -- 94
2018-05-30 03:00:00 17.6 7 Sudoeste 10 Sudoeste 0 -- -- 94
2018-05-30 02:00:00 17.8 8 Sudoeste 13 Sudoeste 0 -- -- 94
2018-05-30 01:00:00 18.2 10 Sudoeste 12 Sur 0 -- -- 94
2018-05-30 00:00:00 18.7 10 Sur 12 Sudoeste 0 -- -- 94
2018-05-29 23:00:00 18.4 4 Sudoeste 12 Sudoeste 0 -- -- 94
2018-05-29 22:00:00 18.8 9 Sur 19 Sur 0 -- -- 94
2018-05-29 21:00:00 19.1 17 Sur 23 Sudoeste 0 -- -- 94
2018-05-29 20:00:00 20 8 Sur 10 Sur 0 -- -- 92
2018-05-29 19:00:00 19.9 0 Calma 12 Norte 0 -- -- 92
2018-05-29 18:00:00 20.6 9 Norte 10 Norte 0 -- -- 91
2018-05-29 17:00:00 21 6 Nordeste 15 Norte 0 -- -- 89
2018-05-29 16:00:00 23.6 15 Norte 20 Norte 0 -- -- 78
2018-05-29 15:00:00 22.7 18 Norte 23 Norte 0 -- -- 79
2018-05-29 14:00:00 23.4 19 Norte 21 Norte 0 -- -- 77
2018-05-29 13:00:00 22.7 14 Norte 18 Norte 0 -- -- 85
2018-05-29 12:00:00 23 10 Norte 12 Norte 0 -- -- 88
2018-05-29 11:00:00 21.9 0 Calma -- -- 0 -- -- 89
2018-05-29 10:00:00 21.1 0 Calma -- -- 0 -- -- 92
2018-05-29 09:00:00 19.6 0 Calma -- -- 0 -- -- 94
2018-05-29 08:00:00 19.7 0 Calma -- -- 0 -- -- 97
2018-05-29 07:00:00 17.9 0 Calma -- -- 0 -- -- 97
2018-05-29 06:00:00 17.8 0 Calma -- -- 0 -- -- 97
2018-05-29 05:00:00 17.7 0 Calma -- -- 0 -- -- 97
2018-05-29 04:00:00 17.8 0 Calma -- -- 0 -- -- 97
2018-05-29 03:00:00 17.7 0 Calma -- -- 0 -- -- 97
2018-05-29 02:00:00 17.7 0 Calma 14 Sur 0 -- -- 97
2018-05-29 01:00:00 17.9 10 Sur 23 Sur 0 -- -- 97
2018-05-29 00:00:00 17.8 11 Sur 23 Sur 0 -- -- 97
2018-05-28 23:00:00 17.9 20 Sur 33 Sur 0 -- -- 97
2018-05-28 22:00:00 18 18 Sur 32 Sudoeste 0 -- -- 97
2018-05-28 21:00:00 18.1 23 Sur 42 Sur 0 -- -- 97
2018-05-28 20:00:00 18.2 26 Sur 41 Sur 0 -- -- 96
2018-05-28 19:00:00 18.4 26 Sur 42 Sur 0 -- -- 96
2018-05-28 18:00:00 18.9 32 Sur 39 Sur 0 -- -- 95
2018-05-28 17:00:00 19.5 31 Sur 45 Sur 0 -- -- 95
2018-05-28 16:00:00 19.3 37 Sur 49 Sur 0 -- -- 95
2018-05-28 15:00:00 20 26 Sur 36 Sur 0 -- -- 95
2018-05-28 14:00:00 19.9 32 Sur 40 Sur 0 -- -- 95
2018-05-28 13:00:00 20.5 35 Sur 39 Sur 0 -- -- 95
2018-05-28 12:00:00 19.1 24 Sur 46 Sur 0 -- -- 96
2018-05-28 11:00:00 18.7 32 Sur 47 Sur 0 -- -- 96
2018-05-28 10:00:00 18.5 21 Sur 39 Sur 0 -- -- 96
2018-05-28 09:00:00 18.3 20 Sur 36 Sur 0 -- -- 96
2018-05-28 08:00:00 18.6 15 Sur 21 Sudoeste 0 -- -- 96
2018-05-28 07:00:00 17.7 17 Sur 32 Sudoeste 0 -- -- 96
2018-05-28 06:00:00 17.7 23 Sudoeste 37 Sudoeste 0 -- -- 96
2018-05-28 05:00:00 17.8 22 Sudoeste 48 Sur 0 -- -- 96
2018-05-28 04:00:00 18.2 39 Sur 52 Sudoeste 0 -- -- 96
2018-05-28 03:00:00 18.3 31 Sur 44 Sur 0 -- -- 96
2018-05-28 02:00:00 18.1 13 Sur 26 Sur 0 -- -- 96
2018-05-28 01:00:00 18.5 13 Sur 26 Sur 0 -- -- 96
2018-05-28 00:00:00 18.4 13 Sur 21 Sur 0 -- -- 96
2018-05-27 23:00:00 18.8 16 Sudoeste 28 Sudoeste 0 -- -- 96
2018-05-27 22:00:00 19.1 10 Sur 19 Sur 0 -- -- 97
2018-05-27 21:00:00 19.2 2 Nordeste 18 Norte 0 -- -- 96
2018-05-27 20:00:00 19.6 16 Norte 22 Norte 0 -- -- 95
2018-05-27 19:00:00 20.1 22 Norte 30 Norte 0 -- -- 94
2018-05-27 18:00:00 20.8 24 Norte 28 Norte 0 -- -- 93
2018-05-27 17:00:00 22.2 16 Sur 35 Sur 0 -- -- 87
2018-05-27 16:00:00 23.6 17 Sudoeste 44 Sur 0 -- -- 88
2018-05-27 15:00:00 21.2 13 Sudeste 27 Sur 0 -- -- 94
2018-05-27 14:00:00 19.4 21 Sur 29 Sudoeste 0 -- -- 95
2018-05-27 13:00:00 20.7 6 Sur 9 Sur 0 -- -- 95
2018-05-27 12:00:00 21.1 6 Nordeste 10 Nordeste 0 -- -- 96
2018-05-27 11:00:00 20.3 4 Norte 17 Norte 0 -- -- 98
2018-05-27 10:00:00 18.7 16 Norte 18 Norte 0 -- -- 98
2018-05-27 09:00:00 18.3 15 Norte 19 Norte 0 -- -- 98
2018-05-27 08:00:00 18.4 5 Sudeste 18 Nordeste 0 -- -- 98
2018-05-27 07:00:00 18.1 9 Este 19 Este 0 -- -- 98
2018-05-27 06:00:00 18 8 Este 23 Este 0 -- -- 98
2018-05-27 05:00:00 17.9 11 Este 21 Este 0 -- -- 98
2018-05-27 04:00:00 17.8 6 Este 21 Este 0 -- -- 98
2018-05-27 03:00:00 17.8 10 Este 22 Nordeste 0 -- -- 98
2018-05-27 02:00:00 17.8 8 Este 18 Este 0 -- -- 98
2018-05-27 01:00:00 17.9 10 Este 18 Este 0 -- -- 98
2018-05-27 00:00:00 18 10 Este 19 Sudeste 0 -- -- 97
2018-05-26 23:00:00 18.1 15 Sudeste 16 Sudeste 0 -- -- 98
2018-05-26 22:00:00 18.3 14 Sudeste 16 Sudeste 0 -- -- 98
2018-05-26 21:00:00 18.4 13 Sur 20 Sur 0 -- -- 97
2018-05-26 20:00:00 18.6 16 Sudeste 23 Sudeste 0 -- -- 95
2018-05-26 19:00:00 18.9 19 Sudeste 24 Sudeste 0 -- -- 95
2018-05-26 18:00:00 19.2 19 Sudeste 23 Sudeste 0 -- -- 95
2018-05-26 17:00:00 19.8 21 Sudeste 26 Sudeste 0 -- -- 94
2018-05-26 16:00:00 20.1 21 Sudeste 25 Sudeste 0 -- -- 94
2018-05-26 15:00:00 20.2 22 Sudeste 25 Sudeste 0 -- -- 94
2018-05-26 14:00:00 20.6 16 Sudeste 22 Sudeste 0 -- -- 94
2018-05-26 13:00:00 20.5 13 Sudeste 20 Sudeste 0 -- -- 95
2018-05-26 12:00:00 19.5 15 Sudeste 20 Sur 0 -- -- 97
2018-05-26 11:00:00 18.8 16 Sudeste 23 Sudeste 0 -- -- 98
2018-05-26 10:00:00 18.4 21 Sur 30 Sudeste 0 -- -- 98
2018-05-26 09:00:00 18.1 26 Sudeste 33 Sudeste 0 -- -- 98
2018-05-26 08:00:00 17.9 24 Sur 34 Sudeste 0 -- -- 98
2018-05-26 07:00:00 17.5 25 Sudeste 30 Sudeste 0 -- -- 98
2018-05-26 06:00:00 17.5 18 Sudeste 27 Sudeste 0 -- -- 98
2018-05-26 05:00:00 17.6 19 Sudeste 27 Este 0 -- -- 98
2018-05-26 04:00:00 17.9 13 Sudeste 18 Sudeste 0 -- -- 98
2018-05-26 03:00:00 17.7 14 Sudeste 24 Sudeste 0 -- -- 98
2018-05-26 02:00:00 18 13 Sudeste 24 Sudeste 0 -- -- 98
2018-05-26 01:00:00 18 22 Sudeste 28 Sudeste 0 -- -- 98
2018-05-26 00:00:00 17.9 22 Sudeste 24 Sur 0 -- -- 97
2018-05-25 23:00:00 17.9 20 Sudeste 22 Sudeste 0 -- -- 97
2018-05-25 22:00:00 18 17 Sur 26 Sudeste 0 -- -- 98
2018-05-25 21:00:00 18 19 Sudeste 28 Sudeste 0 -- -- 97
2018-05-25 20:00:00 18.2 26 Sudeste 32 Sudeste 0 -- -- 97
2018-05-25 19:00:00 18.6 26 Sudeste 32 Sudeste 0 -- -- 96
2018-05-25 18:00:00 19.3 27 Sudeste 31 Sudeste 0 -- -- 94
2018-05-25 17:00:00 20.1 25 Sudeste 30 Sudeste 0 -- -- 93
2018-05-25 16:00:00 19.8 26 Sudeste 31 Sudeste 0 -- -- 93
2018-05-25 15:00:00 20.7 21 Sudeste 27 Este 0 -- -- 91
2018-05-25 14:00:00 21.8 14 Sudeste 18 Sudeste 0 -- -- 88
2018-05-25 13:00:00 23 10 Sur 14 Sudeste 0 -- -- 88
2018-05-25 12:00:00 20.8 10 Sudeste 19 Sur 0 -- -- 91
2018-05-25 11:00:00 20.2 14 Sudeste 23 Sudeste 0 -- -- 92
2018-05-25 10:00:00 20 19 Sudeste 27 Sudeste 0 -- -- 93
2018-05-25 09:00:00 19.7 17 Este 33 Sudeste 0 -- -- 94
2018-05-25 08:00:00 18.7 27 Sudeste 41 Este 0 -- -- 96
2018-05-25 07:00:00 18 22 Este 36 Sur 0 -- -- 96
2018-05-25 06:00:00 17.9 13 Este 26 Nordeste 0 -- -- 96
2018-05-25 05:00:00 17.7 15 Nordeste 21 Nordeste 0 -- -- 95
2018-05-25 04:00:00 17.6 12 Nordeste 17 Nordeste 0 -- -- 95
2018-05-25 03:00:00 17.6 7 Este 18 Sudeste 0 -- -- 95
2018-05-25 02:00:00 17.4 8 Este 13 Este 0 -- -- 95
2018-05-25 01:00:00 17.5 5 Este 19 Sudeste 0 -- -- 95
2018-05-25 00:00:00 17.7 14 Sudeste 24 Este 0 -- -- 95
2018-05-24 23:00:00 17.7 15 Este 23 Este 0 -- -- 95
2018-05-24 22:00:00 17.7 12 Este 20 Sudeste 0 -- -- 95
2018-05-24 21:00:00 17.9 8 Este 17 Este 0 -- -- 95
2018-05-24 20:00:00 18.3 10 Este 17 Sudeste 0 -- -- 95
2018-05-24 19:00:00 18.5 12 Sudeste 20 Sudeste 0 -- -- 94
2018-05-24 18:00:00 19.3 17 Sudeste 22 Sudeste 0 -- -- 92
2018-05-24 17:00:00 20.6 14 Sudeste 22 Sudeste 0 -- -- 90
2018-05-24 16:00:00 21.7 17 Sudeste 19 Sudeste 0 -- -- 90
2018-05-24 15:00:00 22.1 13 Sudeste 23 Sudeste 0 -- -- 90
2018-05-24 14:00:00 21.6 19 Sudeste 23 Sudeste 0 -- -- 91
2018-05-24 13:00:00 21.1 12 Sudeste 19 Sudeste 0 -- -- 93
2018-05-24 12:00:00 19.7 4 Este 13 Nordeste 0 -- -- 97
2018-05-24 11:00:00 18.7 6 Sudeste 10 Sudeste 0 -- -- 97
2018-05-24 10:00:00 18.8 5 Sudeste 9 Sudeste 0 -- -- 97
2018-05-24 09:00:00 18.9 0 Calma -- -- 0 -- -- 98
2018-05-24 08:00:00 18.7 0 Calma -- -- 0 -- -- 98
2018-05-24 07:00:00 17.3 0 Calma 9 Sur 0 -- -- 98
2018-05-24 06:00:00 16.5 8 Sur 13 Sur 0 -- -- 98
2018-05-24 05:00:00 16.7 10 Sur 20 Sur 0 -- -- 98
2018-05-24 04:00:00 17.1 10 Sur 14 Sudeste 0 -- -- 98
2018-05-24 03:00:00 17.1 11 Sur 15 Sur 0 -- -- 98
2018-05-24 02:00:00 17 10 Sur 15 Sudeste 0 -- -- 98
2018-05-24 01:00:00 16.8 9 Sur 12 Sur 0 -- -- 97
2018-05-24 00:00:00 16.9 10 Sur 22 Sudoeste 0 -- -- 97
2018-05-23 23:00:00 17.3 18 Sudoeste 24 Sur 0 -- -- 97
2018-05-23 22:00:00 17.6 21 Sur 27 Sur 0 -- -- 97
2018-05-23 21:00:00 17.7 20 Sur 28 Sur 0 -- -- 97
2018-05-23 20:00:00 17.8 18 Sur 27 Sur 0 -- -- 97
2018-05-23 19:00:00 18.7 24 Sur 30 Sur 0 -- -- 96
2018-05-23 18:00:00 19.7 25 Sur 33 Sur 0 -- -- 93
2018-05-23 17:00:00 20.6 25 Sur 29 Sur 0 -- -- 93
2018-05-23 16:00:00 21.1 23 Sur 33 Sur 0 -- -- 93
2018-05-23 15:00:00 19.5 21 Sur 35 Sur 0 -- -- 93
2018-05-23 14:00:00 21.3 26 Sur 33 Sur 0 -- -- 91
2018-05-23 13:00:00 20.8 28 Sur 33 Sur 0 -- -- 91
2018-05-23 12:00:00 21.2 17 Sur 20 Sur 0 -- -- 92
2018-05-23 11:00:00 19.5 11 Sur 24 Sur 0 -- -- 94
2018-05-23 10:00:00 18.9 15 Sur 20 Sur 0 -- -- 93
2018-05-23 09:00:00 20.2 0 Calma -- -- 0 -- -- 91
2018-05-23 08:00:00 19.8 0 Calma -- -- 0 -- -- 93
2018-05-23 07:00:00 17 0 Calma 9 Sudoeste 0 -- -- 97
2018-05-23 06:00:00 15.8 4 Oeste 14 Sudoeste 0 -- -- 97
2018-05-23 05:00:00 16.1 12 Sudoeste 14 Sudoeste 0 -- -- 97
2018-05-23 04:00:00 16.5 6 Sudoeste 16 Sudoeste 0 -- -- 97
2018-05-23 03:00:00 16.3 10 Sudoeste 14 Sudoeste 0 -- -- 97
2018-05-23 02:00:00 17 0 Calma 10 Sudoeste 0 -- -- 97
2018-05-23 01:00:00 17.1 10 Sudoeste 13 Sur 0 -- -- 97
2018-05-23 00:00:00 17.2 9 Sur 10 Sur 0 -- -- 97
2018-05-22 23:00:00 17.4 0 Calma 16 Sur 0 -- -- 97
2018-05-22 22:00:00 17.8 13 Sur 18 Sur 0 -- -- 97
2018-05-22 21:00:00 17.8 9 Sur 18 Sur 0 -- -- 96
2018-05-22 20:00:00 18.2 11 Sur 16 Sur 0 -- -- 96
2018-05-22 19:00:00 19.2 13 Sur 16 Sur 0 -- -- 93
2018-05-22 18:00:00 20.1 12 Sudeste 14 Sudeste 0 -- -- 91
2018-05-22 17:00:00 20.4 7 Sur 19 Sur 0 -- -- 93
2018-05-22 16:00:00 18.6 15 Sur 24 Sur 0 -- -- 93
2018-05-22 15:00:00 19.5 0 Calma 11 Nordeste 0 -- -- 92
2018-05-22 14:00:00 20.6 12 Norte 22 Norte 0 -- -- 90
2018-05-22 13:00:00 22 18 Norte 22 Noroeste 0 -- -- 89
2018-05-22 12:00:00 21.4 21 Norte 24 Norte 0 -- -- 89
2018-05-22 11:00:00 20.8 13 Norte 18 Norte 0 -- -- 90
2018-05-22 10:00:00 19.9 17 Norte 20 Norte 0 -- -- 91
2018-05-22 09:00:00 20.1 0 Calma 10 Sudoeste 0 -- -- 93
2018-05-22 08:00:00 17.4 9 Sudoeste 13 Sur 0 -- -- 97
2018-05-22 07:00:00 15.6 11 Sur 14 Sur 0 -- -- 97
2018-05-22 06:00:00 15.8 13 Sur 16 Sur 0 -- -- 97
2018-05-22 05:00:00 15.5 9 Sur 10 Sur 0 -- -- 96
2018-05-22 04:00:00 16.1 8 Norte 10 Norte 0 -- -- 96
2018-05-22 03:00:00 16.1 8 Oeste 15 Noroeste 0 -- -- 96
2018-05-22 02:00:00 16.4 6 Noroeste 15 Norte 0 -- -- 95
2018-05-22 01:00:00 16.7 8 Norte 15 Noroeste 0 -- -- 95
2018-05-22 00:00:00 16.7 8 Noroeste 14 Noroeste 0 -- -- 95